createdAt,value
2018-08-18T00:00:33.227Z,7.13
2018-08-18T00:03:03.152Z,6.67
2018-08-18T00:05:32.720Z,6.63
2018-08-18T00:08:02.108Z,6.60
2018-08-18T00:10:31.960Z,6.47
2018-08-18T00:13:01.785Z,6.03
2018-08-18T00:15:31.694Z,6.73
2018-08-18T00:18:01.863Z,7.17
2018-08-18T00:20:31.392Z,6.07
2018-08-18T00:23:01.394Z,6.37
2018-08-18T00:25:31.022Z,6.23
2018-08-18T00:28:11.660Z,5.83
2018-08-18T00:30:41.452Z,6.17
2018-08-18T00:33:11.063Z,5.97
2018-08-18T00:35:40.773Z,6.57
2018-08-18T00:38:10.377Z,6.37
2018-08-18T00:40:39.512Z,6.30
2018-08-18T00:43:09.294Z,6.13
2018-08-18T00:45:38.838Z,6.73
2018-08-18T00:48:08.550Z,6.77
2018-08-18T00:50:43.586Z,7.27
2018-08-18T00:53:14.858Z,6.87
2018-08-18T00:55:44.752Z,7.10
2018-08-18T00:58:20.410Z,6.80
2018-08-18T01:00:54.903Z,7.10
2018-08-18T01:03:24.603Z,7.17
2018-08-18T01:05:54.308Z,7.13
2018-08-18T01:08:24.134Z,6.57
2018-08-18T01:10:54.027Z,6.43
2018-08-18T01:13:23.670Z,5.93
2018-08-18T01:15:53.256Z,6.43
2018-08-18T01:18:23.450Z,6.60
2018-08-18T01:20:52.956Z,7.00
2018-08-18T01:23:22.579Z,6.57
2018-08-18T01:25:51.976Z,7.37
2018-08-18T01:28:21.366Z,7.00
2018-08-18T01:31:05.048Z,8.00
2018-08-18T01:33:35.503Z,9.27
2018-08-18T01:36:05.430Z,8.23
2018-08-18T01:38:36.356Z,7.60
2018-08-18T01:41:15.192Z,7.50
2018-08-18T01:43:46.022Z,8.73
2018-08-18T01:46:17.401Z,8.10
2018-08-18T01:48:49.460Z,8.00
2018-08-18T01:51:21.684Z,7.60
2018-08-18T01:53:51.332Z,8.23
2018-08-18T01:56:20.935Z,7.13
2018-08-18T01:58:50.841Z,7.77
2018-08-18T02:01:20.414Z,7.47
2018-08-18T02:03:50.289Z,7.43
2018-08-18T02:06:20.327Z,7.23
2018-08-18T02:08:57.730Z,7.47
2018-08-18T02:11:27.423Z,7.33
2018-08-18T02:13:57.769Z,7.03
2018-08-18T02:16:27.990Z,6.97
2018-08-18T02:18:57.377Z,7.30
2018-08-18T02:21:35.871Z,6.90
2018-08-18T02:24:06.368Z,7.77
2018-08-18T02:26:36.677Z,7.90
2018-08-18T02:29:06.153Z,7.20
2018-08-18T02:31:35.667Z,6.90
2018-08-18T02:34:05.174Z,7.60
2018-08-18T02:36:35.839Z,8.20
2018-08-18T02:39:07.026Z,7.97
2018-08-18T02:41:37.811Z,7.20
2018-08-18T02:44:07.142Z,7.67
2018-08-18T02:46:37.947Z,6.20
2018-08-18T02:49:07.499Z,6.40
2018-08-18T02:51:37.604Z,6.73
2018-08-18T02:54:07.221Z,6.60
2018-08-18T02:56:43.095Z,7.70
2018-08-18T02:59:13.070Z,7.20
2018-08-18T03:01:44.012Z,6.83
2018-08-18T03:04:15.167Z,6.93
2018-08-18T03:06:44.823Z,7.13
2018-08-18T03:09:14.536Z,6.77
2018-08-18T03:11:44.343Z,6.97
2018-08-18T03:14:13.714Z,7.40
2018-08-18T03:16:43.379Z,7.33
2018-08-18T03:19:14.334Z,6.33
2018-08-18T03:21:44.061Z,7.27
2018-08-18T03:24:16.790Z,7.27
2018-08-18T03:26:48.186Z,6.67
2018-08-18T03:29:19.308Z,7.00
2018-08-18T03:31:49.203Z,6.93
2018-08-18T03:34:19.045Z,7.37
2018-08-18T03:36:52.626Z,7.07
2018-08-18T03:39:39.965Z,7.80
2018-08-18T03:42:09.363Z,7.30
2018-08-18T03:44:43.713Z,6.93
2018-08-18T03:47:13.161Z,7.10
2018-08-18T03:49:42.495Z,7.20
2018-08-18T03:52:11.965Z,6.83
2018-08-18T03:54:41.220Z,7.20
2018-08-18T03:57:10.977Z,6.97
2018-08-18T03:59:40.472Z,6.97
2018-08-18T04:02:09.708Z,7.17
2018-08-18T04:04:39.056Z,6.97
2018-08-18T04:07:09.019Z,6.63
2018-08-18T04:09:39.341Z,6.27
2018-08-18T04:12:11.041Z,6.23
2018-08-18T04:14:43.537Z,6.63
2018-08-18T04:17:25.137Z,6.80
2018-08-18T04:19:55.057Z,6.40
2018-08-18T04:22:24.887Z,7.20
2018-08-18T04:24:56.273Z,6.70
2018-08-18T04:27:37.763Z,6.60
2018-08-18T04:30:11.904Z,6.77
2018-08-18T04:32:51.245Z,6.27
2018-08-18T04:35:23.404Z,7.53
2018-08-18T04:37:54.535Z,6.50
2018-08-18T04:40:24.900Z,6.87
2018-08-18T04:42:57.833Z,7.30
2018-08-18T04:45:28.235Z,7.23
2018-08-18T04:48:00.419Z,7.07
2018-08-18T04:50:30.650Z,7.10
2018-08-18T04:53:01.668Z,7.30
2018-08-18T04:55:32.988Z,7.07
2018-08-18T04:58:03.415Z,7.40
2018-08-18T05:00:33.943Z,7.20
2018-08-18T05:03:04.335Z,7.87
2018-08-18T05:05:35.328Z,8.20
2018-08-18T05:08:06.364Z,7.90
2018-08-18T05:10:37.916Z,7.97
2018-08-18T05:13:08.774Z,7.07
2018-08-18T05:15:39.289Z,7.50
2018-08-18T05:18:09.899Z,6.80
2018-08-18T05:20:40.350Z,7.43
2018-08-18T05:23:21.862Z,7.20
2018-08-18T05:25:53.608Z,6.90
2018-08-18T05:28:23.851Z,7.70
2018-08-18T05:30:54.518Z,6.83
2018-08-18T05:33:25.119Z,7.13
2018-08-18T05:35:55.285Z,6.70
2018-08-18T05:38:25.769Z,7.23
2018-08-18T05:40:56.718Z,7.23
2018-08-18T05:43:27.980Z,8.10
2018-08-18T05:45:59.027Z,11.20
2018-08-18T05:48:29.658Z,11.40
2018-08-18T05:51:00.496Z,11.67
2018-08-18T05:53:33.039Z,11.47
2018-08-18T05:56:04.739Z,11.50
2018-08-18T05:58:50.954Z,13.80
2018-08-18T06:01:26.591Z,12.87
2018-08-18T06:04:01.854Z,12.03
2018-08-18T06:06:32.179Z,11.67
2018-08-18T06:09:03.060Z,12.20
2018-08-18T06:11:33.988Z,12.40
2018-08-18T06:14:04.586Z,12.97
2018-08-18T06:16:34.521Z,12.20
2018-08-18T06:19:05.468Z,11.73
2018-08-18T06:21:35.968Z,14.17
2018-08-18T06:24:06.493Z,12.17
2018-08-18T06:26:36.774Z,13.50
2018-08-18T06:29:07.906Z,11.37
2018-08-18T06:32:05.130Z,11.97
2018-08-18T06:34:40.875Z,10.93
2018-08-18T06:37:11.846Z,11.17
2018-08-18T06:40:05.292Z,12.10
2018-08-18T06:42:40.024Z,11.07
2018-08-18T06:45:12.040Z,11.20
2018-08-18T06:47:43.165Z,10.67
2018-08-18T06:50:14.924Z,10.27
2018-08-18T06:52:46.345Z,9.70
2018-08-18T06:55:18.370Z,8.00
2018-08-18T06:57:53.343Z,10.43
2018-08-18T07:00:27.781Z,8.57
2018-08-18T07:02:59.162Z,8.03
2018-08-18T07:05:29.577Z,7.43
2018-08-18T07:07:59.933Z,6.97
2018-08-18T07:10:33.974Z,6.23
2018-08-18T07:13:05.844Z,5.47
2018-08-18T07:15:38.780Z,5.00
2018-08-18T07:18:10.067Z,4.83
2018-08-18T07:20:40.206Z,4.63
2018-08-18T07:23:10.095Z,5.10
2018-08-18T07:25:46.201Z,4.60
2018-08-18T07:28:18.916Z,5.40
2018-08-18T07:30:49.281Z,5.00
2018-08-18T07:33:19.626Z,4.27
2018-08-18T07:35:50.644Z,3.80
2018-08-18T07:38:20.806Z,4.07
2018-08-18T07:40:52.854Z,4.53
2018-08-18T07:43:25.866Z,4.13
2018-08-18T07:45:57.588Z,3.93
2018-08-18T07:48:27.744Z,3.73
2018-08-18T07:50:58.157Z,3.87
2018-08-18T07:53:28.329Z,4.00
2018-08-18T07:55:58.313Z,4.43
2018-08-18T07:58:28.675Z,4.23
2018-08-18T08:00:59.694Z,4.40
2018-08-18T08:03:30.365Z,4.30
2018-08-18T08:06:00.667Z,4.43
2018-08-18T08:08:37.080Z,3.63
2018-08-18T08:11:12.054Z,4.10
2018-08-18T08:13:42.744Z,3.93
2018-08-18T08:16:12.906Z,3.83
2018-08-18T08:18:43.480Z,3.60
2018-08-18T08:21:13.875Z,3.33
2018-08-18T08:23:43.923Z,3.30
2018-08-18T08:26:14.518Z,3.50
2018-08-18T08:28:44.712Z,3.00
2018-08-18T08:31:15.295Z,3.03
2018-08-18T08:33:45.405Z,3.07
2018-08-18T08:36:17.466Z,2.73
2018-08-18T08:38:57.239Z,3.30
2018-08-18T08:41:29.813Z,3.30
2018-08-18T08:44:01.263Z,3.63
2018-08-18T08:46:31.556Z,3.50
2018-08-18T08:49:02.104Z,2.77
2018-08-18T08:51:31.984Z,2.83
2018-08-18T08:54:02.040Z,2.77
2018-08-18T08:56:36.968Z,3.17
2018-08-18T08:59:07.045Z,2.53
2018-08-18T09:01:36.965Z,2.97
2018-08-18T09:04:07.134Z,2.73
2018-08-18T09:06:41.282Z,2.40
2018-08-18T09:09:11.595Z,2.60
2018-08-18T09:11:41.420Z,2.70
2018-08-18T09:14:11.422Z,2.13
2018-08-18T09:16:42.140Z,2.63
2018-08-18T09:19:12.164Z,2.57
2018-08-18T09:21:46.787Z,3.07
2018-08-18T09:24:16.618Z,2.77
2018-08-18T09:26:52.405Z,2.33
2018-08-18T09:29:22.925Z,2.50
2018-08-18T09:31:52.533Z,2.40
2018-08-18T09:34:22.362Z,2.83
2018-08-18T09:36:52.338Z,2.10
2018-08-18T09:39:27.839Z,2.03
2018-08-18T09:41:57.903Z,2.40
2018-08-18T09:44:30.791Z,2.60
2018-08-18T09:47:00.769Z,2.30
2018-08-18T09:49:32.051Z,2.57
2018-08-18T09:52:02.069Z,2.30
2018-08-18T09:54:31.757Z,2.20
2018-08-18T09:57:01.732Z,1.70
2018-08-18T09:59:32.021Z,2.17
2018-08-18T10:02:01.679Z,2.03
2018-08-18T10:04:31.425Z,2.63
2018-08-18T10:07:01.478Z,2.20
2018-08-18T10:09:31.516Z,2.20
2018-08-18T10:12:02.331Z,2.60
2018-08-18T10:14:32.036Z,3.43
2018-08-18T10:17:02.165Z,3.23
2018-08-18T10:19:33.983Z,3.20
2018-08-18T10:22:04.479Z,2.30
2018-08-18T10:24:34.423Z,3.03
2018-08-18T10:27:06.378Z,2.90
2018-08-18T10:29:36.482Z,2.93
2018-08-18T10:32:09.180Z,3.20
2018-08-18T10:34:39.839Z,2.40
2018-08-18T10:37:09.879Z,2.33
2018-08-18T10:39:39.781Z,2.57
2018-08-18T10:42:15.080Z,2.90
2018-08-18T10:44:51.279Z,2.43
2018-08-18T10:47:22.538Z,1.93
2018-08-18T10:50:04.013Z,2.23
2018-08-18T10:52:45.085Z,2.00
2018-08-18T10:55:16.435Z,2.27
2018-08-18T10:57:57.303Z,2.20
2018-08-18T11:00:29.089Z,2.17
2018-08-18T11:03:00.373Z,1.83
2018-08-18T11:05:31.030Z,2.17
2018-08-18T11:08:08.295Z,2.53
2018-08-18T11:10:39.811Z,1.83
2018-08-18T11:13:09.815Z,2.07
2018-08-18T11:15:40.437Z,2.03
2018-08-18T11:18:10.613Z,2.17
2018-08-18T11:20:40.601Z,1.57
2018-08-18T11:23:14.730Z,1.70
2018-08-18T11:25:48.477Z,2.47
2018-08-18T11:28:18.993Z,2.80
2018-08-18T11:30:51.549Z,2.53
2018-08-18T11:33:37.682Z,2.40
2018-08-18T11:36:09.438Z,2.30
2018-08-18T11:38:39.401Z,2.17
2018-08-18T11:41:09.544Z,2.43
2018-08-18T11:43:46.271Z,2.17
2018-08-18T11:46:16.412Z,2.13
2018-08-18T11:48:46.468Z,2.13
2018-08-18T11:51:16.937Z,2.17
2018-08-18T11:54:00.228Z,2.03
2018-08-18T11:56:30.249Z,2.10
2018-08-18T11:59:20.081Z,1.90
2018-08-18T12:01:51.913Z,1.67
2018-08-18T12:04:23.482Z,1.90
2018-08-18T12:06:58.054Z,1.53
2018-08-18T12:09:28.766Z,2.20
2018-08-18T12:11:59.044Z,1.80
2018-08-18T12:14:29.015Z,1.60
2018-08-18T12:16:59.641Z,1.20
2018-08-18T12:19:29.517Z,1.40
2018-08-18T12:21:59.219Z,1.50
2018-08-18T12:24:29.053Z,1.60
2018-08-18T12:27:08.863Z,1.33
2018-08-18T12:29:38.820Z,1.40
2018-08-18T12:32:18.636Z,1.43
2018-08-18T12:34:50.384Z,1.03
2018-08-18T12:37:22.667Z,1.60
2018-08-18T12:39:52.921Z,1.73
2018-08-18T12:42:27.125Z,1.70
2018-08-18T12:44:57.345Z,1.70
2018-08-18T12:47:27.145Z,1.37
2018-08-18T12:49:58.039Z,1.37
2018-08-18T12:52:28.057Z,1.50
2018-08-18T12:54:57.947Z,1.30
2018-08-18T12:57:39.147Z,1.37
2018-08-18T13:00:10.555Z,1.40
2018-08-18T13:02:48.349Z,1.50
2018-08-18T13:05:19.079Z,1.40
2018-08-18T13:07:49.233Z,1.37
2018-08-18T13:10:26.925Z,1.67
2018-08-18T13:12:57.378Z,1.13
2018-08-18T13:15:27.039Z,1.20
2018-08-18T13:17:56.577Z,1.70
2018-08-18T13:20:27.457Z,1.50
2018-08-18T13:22:58.044Z,1.50
2018-08-18T13:25:28.001Z,1.63
2018-08-18T13:27:58.223Z,1.60
2018-08-18T13:30:28.896Z,1.40
2018-08-18T13:32:59.929Z,1.53
2018-08-18T13:35:29.813Z,1.43
2018-08-18T13:37:59.407Z,1.10
2018-08-18T13:40:29.720Z,1.30
2018-08-18T13:42:59.469Z,1.30
2018-08-18T13:45:40.380Z,1.00
2018-08-18T13:48:12.320Z,1.50
2018-08-18T13:50:42.594Z,1.20
2018-08-18T13:53:12.615Z,1.47
2018-08-18T13:55:42.472Z,1.37
2018-08-18T13:58:13.240Z,1.27
2018-08-18T14:00:43.448Z,1.20
2018-08-18T14:03:29.432Z,1.20
2018-08-18T14:05:59.466Z,1.20
2018-08-18T14:08:29.812Z,1.20
2018-08-18T14:10:59.458Z,1.43
2018-08-18T14:13:30.132Z,1.50
2018-08-18T14:16:00.752Z,1.30
2018-08-18T14:18:30.790Z,1.40
2018-08-18T14:21:06.880Z,1.53
2018-08-18T14:23:38.098Z,2.07
2018-08-18T14:26:09.052Z,1.40
2018-08-18T14:28:39.084Z,1.30
2018-08-18T14:31:09.178Z,1.47
2018-08-18T14:33:39.385Z,1.50
2018-08-18T14:36:13.360Z,1.60
2018-08-18T14:38:44.971Z,1.87
2018-08-18T14:41:17.220Z,1.60
2018-08-18T14:43:46.996Z,1.80
2018-08-18T14:46:16.759Z,2.10
2018-08-18T14:48:46.528Z,1.70
2018-08-18T14:51:16.634Z,1.90
2018-08-18T14:53:46.618Z,1.60
2018-08-18T14:56:16.775Z,2.03
2018-08-18T14:58:46.745Z,1.73
2018-08-18T15:01:16.699Z,1.30
2018-08-18T15:03:46.786Z,1.80
2018-08-18T15:06:16.652Z,2.10
2018-08-18T15:08:46.783Z,1.67
2018-08-18T15:11:16.694Z,1.57
2018-08-18T15:13:46.742Z,2.10
2018-08-18T15:16:17.088Z,1.70
2018-08-18T15:18:46.896Z,1.80
2018-08-18T15:21:16.567Z,2.37
2018-08-18T15:23:46.141Z,2.73
2018-08-18T15:26:15.886Z,2.27
2018-08-18T15:28:45.952Z,2.00
2018-08-18T15:31:15.636Z,2.13
2018-08-18T15:33:45.567Z,2.07
2018-08-18T15:36:26.367Z,1.73
2018-08-18T15:38:56.563Z,1.90
2018-08-18T15:41:26.902Z,1.90
2018-08-18T15:43:57.081Z,2.40
2018-08-18T15:46:33.223Z,2.10
2018-08-18T15:49:03.033Z,2.40
2018-08-18T15:51:32.956Z,2.40
2018-08-18T15:54:04.359Z,2.20
2018-08-18T15:56:35.595Z,2.17
2018-08-18T15:59:05.909Z,2.27
2018-08-18T16:01:36.711Z,2.03
2018-08-18T16:04:07.583Z,2.00
2018-08-18T16:06:37.408Z,2.00
2018-08-18T16:09:09.211Z,2.30
2018-08-18T16:11:39.108Z,2.27
2018-08-18T16:14:09.119Z,2.63
2018-08-18T16:16:54.052Z,1.97
2018-08-18T16:19:23.624Z,1.90
2018-08-18T16:21:53.500Z,2.03
2018-08-18T16:24:33.044Z,2.17
2018-08-18T16:27:06.831Z,2.10
2018-08-18T16:29:38.461Z,2.10
2018-08-18T16:32:26.658Z,2.10
2018-08-18T16:35:02.058Z,2.33
2018-08-18T16:37:36.620Z,2.10
2018-08-18T16:40:07.234Z,2.10
2018-08-18T16:42:38.230Z,2.00
2018-08-18T16:45:08.020Z,2.43
2018-08-18T16:47:41.603Z,1.90
2018-08-18T16:50:11.841Z,2.67
2018-08-18T16:52:41.824Z,2.30
2018-08-18T16:55:13.172Z,2.47
2018-08-18T16:57:44.370Z,1.90
2018-08-18T17:00:15.999Z,2.47
2018-08-18T17:02:47.103Z,2.20
2018-08-18T17:05:18.654Z,1.70
2018-08-18T17:07:49.581Z,2.23
2018-08-18T17:10:20.526Z,2.30
2018-08-18T17:12:51.626Z,1.70
2018-08-18T17:15:22.194Z,2.57
2018-08-18T17:17:52.458Z,2.53
2018-08-18T17:20:22.742Z,1.77
2018-08-18T17:22:52.726Z,2.23
2018-08-18T17:25:24.998Z,2.23
2018-08-18T17:27:55.420Z,2.57
2018-08-18T17:30:25.600Z,2.33
2018-08-18T17:32:55.656Z,2.37
2018-08-18T17:35:26.124Z,2.03
2018-08-18T17:37:56.386Z,2.40
2018-08-18T17:40:26.860Z,2.10
2018-08-18T17:42:57.395Z,1.90
2018-08-18T17:45:27.396Z,2.07
2018-08-18T17:47:57.328Z,2.30
2018-08-18T17:50:32.381Z,2.10
2018-08-18T17:53:02.760Z,2.00
2018-08-18T17:55:32.568Z,2.00
2018-08-18T17:58:02.309Z,2.00
2018-08-18T18:00:32.166Z,2.70
2018-08-18T18:03:02.680Z,2.23
2018-08-18T18:05:34.234Z,2.93
2018-08-18T18:08:07.731Z,3.00
2018-08-18T18:10:38.724Z,2.53
2018-08-18T18:13:16.230Z,2.70
2018-08-18T18:15:47.229Z,2.63
2018-08-18T18:18:20.552Z,2.70
2018-08-18T18:20:51.966Z,2.63
2018-08-18T18:23:21.978Z,2.50
2018-08-18T18:25:51.812Z,2.90
2018-08-18T18:28:21.785Z,2.77
2018-08-18T18:30:53.098Z,4.20
2018-08-18T18:33:22.727Z,3.60
2018-08-18T18:35:52.186Z,3.30
2018-08-18T18:38:21.389Z,3.10
2018-08-18T18:40:50.662Z,2.57
2018-08-18T18:43:20.015Z,3.40
2018-08-18T18:45:49.247Z,3.37
2018-08-18T18:48:18.507Z,5.70
2018-08-18T18:50:49.309Z,4.90
2018-08-18T18:53:18.523Z,5.43
2018-08-18T18:55:51.929Z,5.83
2018-08-18T18:58:21.108Z,6.30
2018-08-18T19:00:56.055Z,5.90
2018-08-18T19:03:25.210Z,5.63
2018-08-18T19:05:54.448Z,6.53
2018-08-18T19:08:23.596Z,5.23
2018-08-18T19:10:52.962Z,4.63
2018-08-18T19:13:22.157Z,5.07
2018-08-18T19:15:51.684Z,4.97
2018-08-18T19:18:20.883Z,4.90
2018-08-18T19:20:50.063Z,5.07
2018-08-18T19:23:20.508Z,3.97
2018-08-18T19:25:51.015Z,3.33
2018-08-18T19:28:21.847Z,3.03
2018-08-18T19:30:51.266Z,2.77
2018-08-18T19:33:20.895Z,2.50
2018-08-18T19:35:51.316Z,1.93
2018-08-18T19:38:22.054Z,2.40
2018-08-18T19:40:53.511Z,2.27
2018-08-18T19:43:23.936Z,1.63
2018-08-18T19:45:53.928Z,2.40
2018-08-18T19:48:26.609Z,2.10
2018-08-18T19:51:01.272Z,2.17
2018-08-18T19:53:31.923Z,2.23
2018-08-18T19:56:02.370Z,2.00
2018-08-18T19:58:32.106Z,2.40
2018-08-18T20:01:02.126Z,2.20
2018-08-18T20:03:31.243Z,1.90
2018-08-18T20:06:01.865Z,2.03
2018-08-18T20:08:32.988Z,2.13
2018-08-18T20:11:05.103Z,2.10
2018-08-18T20:13:36.531Z,2.50
2018-08-18T20:16:07.996Z,2.53
2018-08-18T20:18:39.382Z,2.40
2018-08-18T20:21:09.910Z,2.37
2018-08-18T20:23:40.628Z,2.70
2018-08-18T20:26:11.701Z,2.77
2018-08-18T20:28:43.977Z,2.43
2018-08-18T20:31:17.041Z,3.57
2018-08-18T20:33:49.502Z,3.77
2018-08-18T20:36:20.018Z,3.60
2018-08-18T20:38:50.041Z,3.77
2018-08-18T20:41:21.047Z,3.83
2018-08-18T20:43:51.448Z,2.90
2018-08-18T20:46:21.418Z,3.73
2018-08-18T20:48:51.463Z,3.70
2018-08-18T20:51:26.511Z,3.30
2018-08-18T20:53:56.589Z,2.90
2018-08-18T20:56:26.722Z,3.13
2018-08-18T20:58:56.174Z,3.50
2018-08-18T21:01:25.454Z,2.83
2018-08-18T21:03:55.010Z,3.43
2018-08-18T21:06:24.658Z,6.67
2018-08-18T21:08:55.164Z,4.00
2018-08-18T21:11:24.324Z,3.90
2018-08-18T21:13:53.757Z,3.80
2018-08-18T21:16:23.960Z,4.10
2018-08-18T21:18:53.201Z,4.03
2018-08-18T21:21:28.974Z,4.00
2018-08-18T21:23:58.257Z,4.13
2018-08-18T21:26:27.602Z,4.67
2018-08-18T21:28:57.587Z,4.70
2018-08-18T21:31:33.227Z,5.30
2018-08-18T21:34:03.807Z,5.43
2018-08-18T21:36:33.275Z,5.23
2018-08-18T21:39:05.870Z,5.50
2018-08-18T21:41:39.631Z,6.33
2018-08-18T21:44:10.601Z,6.70
2018-08-18T21:46:40.356Z,6.27
2018-08-18T21:49:10.370Z,6.43
2018-08-18T21:51:39.798Z,6.83
2018-08-18T21:54:09.179Z,7.17
2018-08-18T21:56:39.741Z,7.47
2018-08-18T21:59:11.876Z,7.47
2018-08-18T22:01:41.168Z,7.70
2018-08-18T22:04:10.432Z,7.70
2018-08-18T22:06:39.647Z,8.13
2018-08-18T22:09:20.644Z,8.47
2018-08-18T22:11:50.051Z,7.43
2018-08-18T22:14:19.644Z,8.27
2018-08-18T22:16:54.003Z,8.50
2018-08-18T22:19:23.533Z,9.10
2018-08-18T22:21:52.947Z,9.40
2018-08-18T22:24:22.370Z,8.70
2018-08-18T22:26:51.871Z,8.43
2018-08-18T22:29:25.657Z,8.90
2018-08-18T22:31:55.092Z,9.43
2018-08-18T22:34:24.245Z,9.77
2018-08-18T22:37:03.095Z,8.80
2018-08-18T22:39:32.545Z,8.70
2018-08-18T22:42:01.724Z,8.83
2018-08-18T22:44:31.172Z,8.73
2018-08-18T22:47:02.881Z,9.00
2018-08-18T22:49:32.125Z,8.63
2018-08-18T22:52:01.393Z,7.60
2018-08-18T22:54:30.784Z,9.00
2018-08-18T22:57:01.614Z,8.97
2018-08-18T22:59:31.361Z,8.90
2018-08-18T23:02:00.853Z,10.33
2018-08-18T23:04:34.882Z,10.40
2018-08-18T23:07:05.050Z,9.00
2018-08-18T23:09:34.257Z,8.37
2018-08-18T23:12:05.230Z,8.67
2018-08-18T23:14:35.934Z,8.57
2018-08-18T23:17:05.651Z,8.20
2018-08-18T23:19:34.846Z,8.77
2018-08-18T23:22:04.424Z,9.07
2018-08-18T23:24:38.058Z,8.43
2018-08-18T23:27:07.330Z,8.80
2018-08-18T23:29:36.664Z,7.40
2018-08-18T23:32:13.957Z,8.67
2018-08-18T23:34:43.304Z,9.03
2018-08-18T23:37:16.817Z,8.97
2018-08-18T23:39:46.017Z,8.43
2018-08-18T23:42:19.694Z,8.97
2018-08-18T23:44:49.326Z,8.37
2018-08-18T23:47:19.094Z,7.63
2018-08-18T23:49:48.671Z,7.37
2018-08-18T23:52:18.202Z,7.67
2018-08-18T23:54:47.566Z,7.23
2018-08-18T23:57:17.801Z,7.63
2018-08-18T23:59:47.392Z,7.87
